Fort Collins, CO

2:04 PM MDT on August 26, 2016 (GMT -0600)
Fort Collins-Loveland Municipal | | Change Station

Elev 5016 ft 40.45 °N, 105.01 °W | Updated 9 minutes ago

Clear
Clear
75 °F
Feels Like 75 °F
N
10
Wind Variable Wind from SE

Today
High -- | Low -- °F
--% Chance of Precip.
Yesterday
High -- | Low -- °F
Precip. -- in
Pressure 30.05 in
Visibility 10.0 miles
Clouds Clear
Dew Point 46 °F
Humidity 36%
Rainfall 0.00 in
Snow Depth Not available.
6:22 AM 7:40 PM
Waning Crescent, 31% visible
METAR KFNL 261955Z AUTO 14009KT 10SM CLR 24/08 A3005 RMK AO1 LTG DSNT W
Pressure 30.05 in
Visibility 10.0 miles
Clouds Clear
Dew Point 46 °F
Humidity 36%
Rainfall 0.00 in
Snow Depth Not available.
6:22 AM 7:40 PM
Waning Crescent, 31% visible
METAR KFNL 261955Z AUTO 14009KT 10SM CLR 24/08 A3005 RMK AO1 LTG DSNT W

10-Day Weather Forecast

Almanac

Astronomy

Aug. 26, 2016 Rise Set
Actual Time
Civil Twilight
Nautical Twilight
Astronomical Twilight
Moon
Length of Visible Light
Length of Day
Tomorrow will be .
, % of the Moon is Illuminated

Today's Extremes

State Highs State Lows

Community

WunderPhotos

Upload Photos

1,935,191 photos uploaded!

WunderBlog® & News

Nearby

Air Quality

  Air Quality AQ Index Pollutant
Not available.

Snow Depth

Station Depth Elevation

Earthquake Activity

City Distance Mag. Time & Date
Minimum magnitude displayed is 2.5.

Coastal Water Temperatures

Place Temperature

Stations

Nearby Weather Stations

Station Location Temp. Windchill Dew Point Humidity Wind Precip. Elev Updated Type
                   

Watches & Warnings

There are currently no watches in effect.